createdAt,value
2023-03-03T00:00:05.622Z,15.70
2023-03-03T00:02:33.836Z,18.57
2023-03-03T00:05:02.007Z,19.10
2023-03-03T00:07:30.238Z,19.90
2023-03-03T00:09:59.768Z,20.13
2023-03-03T00:12:29.004Z,18.50
2023-03-03T00:14:57.260Z,20.37
2023-03-03T00:17:26.497Z,19.80
2023-03-03T00:19:54.946Z,19.37
2023-03-03T00:22:28.553Z,18.80
2023-03-03T00:24:56.733Z,18.30
2023-03-03T00:27:29.313Z,20.53
2023-03-03T00:29:58.124Z,19.27
2023-03-03T00:32:27.707Z,20.77
2023-03-03T00:34:56.954Z,21.30
2023-03-03T00:37:28.202Z,20.60
2023-03-03T00:40:00.476Z,20.97
2023-03-03T00:42:29.993Z,21.47
2023-03-03T00:44:58.607Z,20.70
2023-03-03T00:47:31.279Z,19.50
2023-03-03T00:50:17.509Z,19.03
2023-03-03T00:52:47.383Z,19.00
2023-03-03T00:55:15.570Z,22.13
2023-03-03T00:57:45.068Z,22.80
2023-03-03T01:00:14.205Z,24.03
2023-03-03T01:02:42.414Z,22.73
2023-03-03T01:05:12.033Z,22.50
2023-03-03T01:07:40.179Z,24.30
2023-03-03T01:10:08.916Z,22.13
2023-03-03T01:12:39.248Z,20.63
2023-03-03T01:15:10.634Z,22.37
2023-03-03T01:17:39.889Z,20.60
2023-03-03T01:20:08.600Z,22.27
2023-03-03T01:22:36.776Z,21.13
2023-03-03T01:25:05.043Z,24.00
2023-03-03T01:27:33.277Z,23.17
2023-03-03T01:30:01.460Z,20.73
2023-03-03T01:32:31.006Z,23.07
2023-03-03T01:34:59.315Z,23.20
2023-03-03T01:37:27.712Z,21.73
2023-03-03T01:39:56.032Z,20.33
2023-03-03T01:42:29.020Z,22.23
2023-03-03T01:45:14.547Z,21.73
2023-03-03T01:47:44.770Z,20.60
2023-03-03T01:50:14.045Z,21.57
2023-03-03T01:52:45.115Z,21.80
2023-03-03T01:55:14.779Z,20.67
2023-03-03T01:57:45.567Z,20.07
2023-03-03T02:00:14.577Z,24.33
2023-03-03T02:02:44.674Z,23.47
2023-03-03T02:05:13.123Z,26.03
2023-03-03T02:07:41.353Z,26.13
2023-03-03T02:10:12.183Z,27.67
2023-03-03T02:12:42.153Z,29.13
2023-03-03T02:15:20.450Z,31.50
2023-03-03T02:17:51.285Z,32.23
2023-03-03T02:20:22.464Z,31.20
2023-03-03T02:22:52.878Z,33.53
2023-03-03T02:25:24.363Z,31.57
2023-03-03T02:27:54.483Z,32.30
2023-03-03T02:30:23.459Z,35.07
2023-03-03T02:32:51.668Z,32.60
2023-03-03T02:35:30.965Z,36.30
2023-03-03T02:38:01.746Z,34.20
2023-03-03T02:40:31.940Z,33.80
2023-03-03T02:43:03.412Z,33.80
2023-03-03T02:45:31.602Z,33.73
2023-03-03T02:47:59.791Z,35.20
2023-03-03T02:50:27.924Z,34.77
2023-03-03T02:52:56.082Z,36.43
2023-03-03T02:55:24.245Z,34.67
2023-03-03T02:57:52.385Z,37.07
2023-03-03T03:00:22.164Z,34.87
2023-03-03T03:02:50.392Z,36.33
2023-03-03T03:05:18.564Z,37.73
2023-03-03T03:07:46.730Z,36.73
2023-03-03T03:10:15.218Z,35.13
2023-03-03T03:12:43.382Z,39.30
2023-03-03T03:15:11.938Z,39.60
2023-03-03T03:17:41.463Z,37.50
2023-03-03T03:20:10.006Z,36.80
2023-03-03T03:22:38.362Z,37.87
2023-03-03T03:25:06.813Z,39.90
2023-03-03T03:27:34.976Z,40.90
2023-03-03T03:30:03.125Z,36.83
2023-03-03T03:32:31.347Z,35.70
2023-03-03T03:35:01.091Z,37.50
2023-03-03T03:37:29.283Z,38.40
2023-03-03T03:39:57.438Z,39.70
2023-03-03T03:42:25.596Z,39.40
2023-03-03T03:44:53.789Z,41.03
2023-03-03T03:47:22.037Z,40.80
2023-03-03T03:49:50.214Z,43.50
2023-03-03T03:52:19.716Z,42.93
2023-03-03T03:54:47.870Z,39.97
2023-03-03T03:57:16.024Z,46.23
2023-03-03T03:59:44.229Z,42.83
2023-03-03T04:02:12.493Z,41.13
2023-03-03T04:04:40.688Z,41.90
2023-03-03T04:07:10.768Z,39.20
2023-03-03T04:09:41.213Z,42.40
2023-03-03T04:12:09.390Z,46.87
2023-03-03T04:14:37.569Z,48.30
2023-03-03T04:17:05.721Z,46.53
2023-03-03T04:19:33.901Z,47.70
2023-03-03T04:22:02.078Z,46.70
2023-03-03T04:24:30.240Z,49.10
2023-03-03T04:26:59.741Z,46.53
2023-03-03T04:29:28.026Z,44.60
2023-03-03T04:31:56.344Z,47.40
2023-03-03T04:34:24.621Z,48.73
2023-03-03T04:36:52.812Z,47.57
2023-03-03T04:39:20.964Z,50.90
2023-03-03T04:41:49.162Z,48.63
2023-03-03T04:44:18.706Z,52.43
2023-03-03T04:46:46.888Z,48.83
2023-03-03T04:49:15.065Z,53.77
2023-03-03T04:51:43.195Z,50.03
2023-03-03T04:54:11.410Z,48.43
2023-03-03T04:56:39.588Z,48.47
2023-03-03T04:59:07.751Z,48.23
2023-03-03T05:01:37.331Z,49.97
2023-03-03T05:04:05.709Z,54.03
2023-03-03T05:06:33.850Z,51.93
2023-03-03T05:09:02.071Z,50.87
2023-03-03T05:11:30.226Z,53.27
2023-03-03T05:13:58.370Z,52.17
2023-03-03T05:16:26.574Z,51.43
2023-03-03T05:18:56.093Z,52.07
2023-03-03T05:21:24.246Z,52.67
2023-03-03T05:23:52.528Z,49.80
2023-03-03T05:26:20.772Z,57.73
2023-03-03T05:28:48.941Z,51.63
2023-03-03T05:31:17.158Z,55.00
2023-03-03T05:33:45.351Z,55.07
2023-03-03T05:36:14.871Z,51.03
2023-03-03T05:38:43.038Z,51.77
2023-03-03T05:41:11.264Z,51.93
2023-03-03T05:43:39.475Z,52.27
2023-03-03T05:46:07.624Z,54.83
2023-03-03T05:48:35.776Z,55.53
2023-03-03T05:51:04.153Z,51.47
2023-03-03T05:53:33.876Z,51.63
2023-03-03T05:56:02.048Z,51.23
2023-03-03T05:58:30.370Z,59.70
2023-03-03T06:00:58.550Z,56.67
2023-03-03T06:03:26.693Z,56.43
2023-03-03T06:05:54.871Z,56.23
2023-03-03T06:08:23.057Z,55.10
2023-03-03T06:10:52.576Z,55.20
2023-03-03T06:13:20.718Z,58.30
2023-03-03T06:15:48.937Z,55.70
2023-03-03T06:18:17.114Z,55.80
2023-03-03T06:20:45.293Z,55.10
2023-03-03T06:23:13.449Z,59.03
2023-03-03T06:25:41.990Z,56.00
2023-03-03T06:28:11.630Z,55.90
2023-03-03T06:30:39.827Z,55.13
2023-03-03T06:33:07.963Z,51.47
2023-03-03T06:35:36.410Z,52.87
2023-03-03T06:38:04.563Z,53.63
2023-03-03T06:40:32.722Z,52.03
2023-03-03T06:43:04.418Z,48.97
2023-03-03T06:45:34.162Z,49.87
2023-03-03T06:48:02.560Z,51.13
2023-03-03T06:50:30.711Z,48.23
2023-03-03T06:53:03.603Z,46.10
2023-03-03T06:55:31.734Z,50.53
2023-03-03T06:58:01.022Z,49.17
2023-03-03T07:00:31.150Z,47.60
2023-03-03T07:03:01.900Z,46.07
2023-03-03T07:05:30.650Z,46.17
2023-03-03T07:07:58.966Z,48.83
2023-03-03T07:10:28.516Z,45.73
2023-03-03T07:12:58.322Z,44.37
2023-03-03T07:15:28.785Z,41.57
2023-03-03T07:17:59.646Z,42.00
2023-03-03T07:20:31.663Z,41.63
2023-03-03T07:23:00.011Z,39.30
2023-03-03T07:25:31.519Z,41.07
2023-03-03T07:28:02.655Z,41.70
2023-03-03T07:30:31.149Z,42.70
2023-03-03T07:32:59.978Z,41.53
2023-03-03T07:35:43.064Z,42.13
2023-03-03T07:38:25.698Z,40.57
2023-03-03T07:40:55.110Z,43.70
2023-03-03T07:43:28.917Z,43.80
2023-03-03T07:46:02.180Z,44.43
2023-03-03T07:48:33.154Z,43.73
2023-03-03T07:51:05.029Z,42.37
2023-03-03T07:53:38.001Z,42.23
2023-03-03T07:56:14.208Z,42.97
2023-03-03T07:58:43.602Z,42.73
2023-03-03T08:01:29.504Z,43.90
2023-03-03T08:03:58.179Z,43.03
2023-03-03T08:06:47.421Z,40.57
2023-03-03T08:09:26.703Z,42.57
2023-03-03T08:11:56.443Z,40.03
2023-03-03T08:14:27.285Z,41.00
2023-03-03T08:16:55.586Z,39.67
2023-03-03T08:19:23.771Z,40.27
2023-03-03T08:21:52.093Z,40.70
2023-03-03T08:24:24.239Z,39.77
2023-03-03T08:26:53.752Z,40.70
2023-03-03T08:29:21.900Z,38.87
2023-03-03T08:31:50.087Z,38.10
2023-03-03T08:34:18.278Z,39.90
2023-03-03T08:36:47.341Z,38.00
2023-03-03T08:39:15.520Z,39.67
2023-03-03T08:41:43.739Z,39.73
2023-03-03T08:44:13.253Z,39.10
2023-03-03T08:46:41.407Z,39.03
2023-03-03T08:49:09.581Z,37.37
2023-03-03T08:51:37.846Z,38.73
2023-03-03T08:54:06.071Z,35.97
2023-03-03T08:56:34.268Z,38.30
2023-03-03T08:59:03.339Z,38.70
2023-03-03T09:01:33.316Z,39.57
2023-03-03T09:04:01.578Z,38.20
2023-03-03T09:06:29.772Z,36.63
2023-03-03T09:08:57.918Z,36.40
2023-03-03T09:11:27.474Z,36.17
2023-03-03T09:14:00.113Z,36.40
2023-03-03T09:16:29.267Z,34.43
2023-03-03T09:18:58.837Z,36.43
2023-03-03T09:21:27.956Z,34.37
2023-03-03T09:23:57.134Z,35.60
2023-03-03T09:26:30.555Z,36.70
2023-03-03T09:29:18.972Z,38.07
2023-03-03T09:31:49.648Z,37.70
2023-03-03T09:34:21.734Z,40.80
2023-03-03T09:36:50.354Z,37.00
2023-03-03T09:39:20.157Z,36.07
2023-03-03T09:42:21.294Z,36.80
2023-03-03T09:44:58.377Z,38.20
2023-03-03T09:47:36.903Z,37.97
2023-03-03T09:50:13.941Z,35.77
2023-03-03T09:52:46.828Z,36.10
2023-03-03T09:55:27.003Z,33.80
2023-03-03T09:58:10.846Z,36.60
2023-03-03T10:00:43.152Z,36.50
2023-03-03T10:03:17.350Z,33.77
2023-03-03T10:05:50.859Z,34.13
2023-03-03T10:08:24.585Z,35.47
2023-03-03T10:10:58.429Z,35.43
2023-03-03T10:13:38.026Z,34.47
2023-03-03T10:16:15.217Z,35.63
2023-03-03T10:18:49.612Z,37.83
2023-03-03T10:21:24.437Z,37.17
2023-03-03T10:23:59.187Z,36.00
2023-03-03T10:26:45.752Z,34.60
2023-03-03T10:29:22.680Z,33.90
2023-03-03T10:31:55.728Z,37.70
2023-03-03T10:34:36.764Z,34.97
2023-03-03T10:37:11.738Z,35.83
2023-03-03T10:39:45.466Z,34.97
2023-03-03T10:42:28.540Z,36.87
2023-03-03T10:45:12.075Z,37.50
2023-03-03T10:47:50.649Z,36.53
2023-03-03T10:50:21.179Z,36.97
2023-03-03T10:52:53.292Z,36.37
2023-03-03T10:55:33.828Z,34.60
2023-03-03T10:58:10.055Z,32.57
2023-03-03T11:00:41.019Z,36.10
2023-03-03T11:03:21.022Z,33.50
2023-03-03T11:05:52.380Z,34.53
2023-03-03T11:08:24.049Z,33.10
2023-03-03T11:11:00.734Z,34.77
2023-03-03T11:13:34.156Z,32.97
2023-03-03T11:16:15.918Z,35.17
2023-03-03T11:18:50.893Z,37.03
2023-03-03T11:21:24.132Z,33.77
2023-03-03T11:23:59.706Z,36.50
2023-03-03T11:26:35.869Z,35.40
2023-03-03T11:29:09.519Z,35.67
2023-03-03T11:31:40.009Z,34.17
2023-03-03T11:34:15.343Z,34.33
2023-03-03T11:36:46.183Z,35.67
2023-03-03T11:39:18.190Z,33.43
2023-03-03T11:41:52.650Z,34.53
2023-03-03T11:44:23.631Z,33.43
2023-03-03T11:46:52.831Z,34.67
2023-03-03T11:49:24.230Z,36.50
2023-03-03T11:51:55.973Z,34.77
2023-03-03T11:54:28.846Z,32.53
2023-03-03T11:57:00.485Z,35.57
2023-03-03T11:59:40.173Z,36.13
2023-03-03T12:02:14.812Z,34.20
2023-03-03T12:04:46.408Z,33.50
2023-03-03T12:07:24.995Z,34.37
2023-03-03T12:09:58.674Z,34.97
2023-03-03T12:12:29.999Z,37.17
2023-03-03T12:15:05.417Z,34.10
2023-03-03T12:17:42.121Z,37.93
2023-03-03T12:20:15.368Z,35.13
2023-03-03T12:22:50.459Z,35.43
2023-03-03T12:25:33.423Z,35.80
2023-03-03T12:28:06.080Z,33.40
2023-03-03T12:30:40.662Z,37.43
2023-03-03T12:33:14.420Z,36.30
2023-03-03T12:35:44.830Z,35.73
2023-03-03T12:38:19.218Z,36.63
2023-03-03T12:40:53.616Z,38.10
2023-03-03T12:43:28.702Z,38.73
2023-03-03T12:46:01.412Z,38.93
2023-03-03T12:48:35.345Z,37.93
2023-03-03T12:51:06.973Z,39.47
2023-03-03T12:53:41.757Z,39.40
2023-03-03T12:56:12.115Z,37.73
2023-03-03T12:58:46.303Z,37.93
2023-03-03T13:01:20.484Z,37.53
2023-03-03T13:03:56.323Z,36.67
2023-03-03T13:06:28.472Z,38.00
2023-03-03T13:09:02.590Z,39.17
2023-03-03T13:11:43.066Z,39.97
2023-03-03T13:14:18.020Z,40.37
2023-03-03T13:16:48.885Z,39.43
2023-03-03T13:19:18.893Z,40.10
2023-03-03T13:21:50.660Z,38.53
2023-03-03T13:24:23.030Z,40.27
2023-03-03T13:26:54.524Z,39.23
2023-03-03T13:29:26.033Z,38.70
2023-03-03T13:31:56.327Z,40.93
2023-03-03T13:34:32.606Z,38.93
2023-03-03T13:37:03.755Z,40.33
2023-03-03T13:39:34.493Z,37.90
2023-03-03T13:42:04.974Z,37.83
2023-03-03T13:44:36.603Z,37.67
2023-03-03T13:47:13.015Z,38.60
2023-03-03T13:49:49.474Z,35.83
2023-03-03T13:52:22.481Z,38.93
2023-03-03T13:54:58.745Z,38.40
2023-03-03T13:57:38.841Z,37.10
2023-03-03T14:00:14.487Z,37.03
2023-03-03T14:02:50.726Z,37.23
2023-03-03T14:05:25.276Z,38.13
2023-03-03T14:07:57.224Z,38.33
2023-03-03T14:10:27.648Z,40.40
2023-03-03T14:13:00.719Z,40.13
2023-03-03T14:15:30.790Z,41.03
2023-03-03T14:18:11.830Z,39.30
2023-03-03T14:20:43.245Z,37.60
2023-03-03T14:23:14.310Z,38.00
2023-03-03T14:25:56.463Z,38.57
2023-03-03T14:28:26.877Z,39.33
2023-03-03T14:30:56.556Z,37.97
2023-03-03T14:33:29.477Z,40.57
2023-03-03T14:36:05.550Z,41.57
2023-03-03T14:38:38.581Z,37.87
2023-03-03T14:41:14.337Z,37.90
2023-03-03T14:43:45.269Z,38.53
2023-03-03T14:46:31.687Z,38.73
2023-03-03T14:49:01.117Z,40.10
2023-03-03T14:51:30.833Z,40.27
2023-03-03T14:53:59.168Z,40.77
2023-03-03T14:56:28.088Z,38.57
2023-03-03T14:59:13.857Z,40.23
2023-03-03T15:01:42.094Z,36.00
2023-03-03T15:04:24.776Z,35.77
2023-03-03T15:06:54.655Z,35.57
2023-03-03T15:09:29.690Z,34.63
2023-03-03T15:11:58.797Z,34.37
2023-03-03T15:14:30.960Z,36.83
2023-03-03T15:16:59.859Z,35.50
2023-03-03T15:19:42.328Z,34.00
2023-03-03T15:22:15.003Z,34.93
2023-03-03T15:24:44.335Z,33.67
2023-03-03T15:27:14.273Z,33.17
2023-03-03T15:29:52.338Z,33.57
2023-03-03T15:32:23.216Z,30.70
2023-03-03T15:34:59.791Z,30.03
2023-03-03T15:37:32.476Z,28.77
2023-03-03T15:40:05.508Z,26.20
2023-03-03T15:42:35.728Z,26.43
2023-03-03T15:45:09.904Z,28.03
2023-03-03T15:47:51.442Z,26.97
2023-03-03T15:50:34.086Z,27.27
2023-03-03T15:53:09.827Z,25.13
2023-03-03T15:55:43.490Z,24.90
2023-03-03T15:58:23.188Z,24.27
2023-03-03T16:01:04.940Z,24.07
2023-03-03T16:03:36.282Z,23.73
2023-03-03T16:06:07.469Z,23.73
2023-03-03T16:08:43.807Z,22.57
2023-03-03T16:11:15.118Z,22.13
2023-03-03T16:13:49.181Z,21.13
2023-03-03T16:16:26.221Z,22.13
2023-03-03T16:18:58.650Z,21.10
2023-03-03T16:21:32.940Z,22.33
2023-03-03T16:24:02.635Z,22.93
2023-03-03T16:26:37.820Z,23.53
2023-03-03T16:29:21.833Z,21.70
2023-03-03T16:31:54.334Z,20.87
2023-03-03T16:34:27.447Z,21.73
2023-03-03T16:37:01.490Z,20.10
2023-03-03T16:39:36.662Z,21.23
2023-03-03T16:42:09.087Z,21.30
2023-03-03T16:44:41.735Z,20.53
2023-03-03T16:47:18.497Z,22.23
2023-03-03T16:49:50.585Z,20.97
2023-03-03T16:52:21.326Z,19.37
2023-03-03T16:54:54.424Z,21.43
2023-03-03T16:57:27.925Z,20.93
2023-03-03T17:00:03.533Z,21.63
2023-03-03T17:02:43.072Z,20.40
2023-03-03T17:05:18.675Z,18.93
2023-03-03T17:07:51.460Z,22.93
2023-03-03T17:10:26.900Z,20.07
2023-03-03T17:13:09.651Z,21.10
2023-03-03T17:15:41.233Z,20.63
2023-03-03T17:18:15.105Z,19.93
2023-03-03T17:20:48.282Z,20.03
2023-03-03T17:23:39.090Z,21.40
2023-03-03T17:26:20.586Z,21.23
2023-03-03T17:28:54.319Z,21.37
2023-03-03T17:31:25.458Z,21.73
2023-03-03T17:34:02.685Z,22.77
2023-03-03T17:36:35.622Z,23.60
2023-03-03T17:39:10.029Z,23.83
2023-03-03T17:41:42.400Z,24.20
2023-03-03T17:44:13.341Z,24.33
2023-03-03T17:46:43.834Z,25.27
2023-03-03T17:49:32.806Z,25.00
2023-03-03T17:52:16.124Z,23.77
2023-03-03T17:54:59.004Z,22.87
2023-03-03T17:57:34.162Z,26.10
2023-03-03T18:00:07.921Z,24.63
2023-03-03T18:02:56.081Z,25.93
2023-03-03T18:05:31.530Z,24.30
2023-03-03T18:08:06.779Z,27.37
2023-03-03T18:10:42.994Z,24.03
2023-03-03T18:13:22.276Z,23.93
2023-03-03T18:16:11.096Z,23.43
2023-03-03T18:18:54.188Z,23.93
2023-03-03T18:21:24.512Z,25.33
2023-03-03T18:23:52.774Z,25.13
2023-03-03T18:26:32.561Z,26.83
2023-03-03T18:29:21.034Z,27.37
2023-03-03T18:31:50.595Z,27.63
2023-03-03T18:34:33.640Z,27.97
2023-03-03T18:37:02.949Z,27.97
2023-03-03T18:39:45.826Z,28.80
2023-03-03T18:42:30.390Z,25.47
2023-03-03T18:45:11.273Z,25.80
2023-03-03T18:47:57.965Z,25.70
2023-03-03T18:50:33.081Z,24.53
2023-03-03T18:53:10.341Z,24.53
2023-03-03T18:55:42.120Z,23.97
2023-03-03T18:58:28.964Z,23.97
2023-03-03T19:01:00.491Z,23.80
2023-03-03T19:03:30.265Z,24.57
2023-03-03T19:06:00.025Z,26.83
2023-03-03T19:08:28.963Z,25.63
2023-03-03T19:10:58.450Z,26.93
2023-03-03T19:13:46.699Z,24.97
2023-03-03T19:16:36.690Z,25.37
2023-03-03T19:19:13.947Z,25.37
2023-03-03T19:21:43.671Z,26.17
2023-03-03T19:24:28.805Z,26.97
2023-03-03T19:27:12.456Z,25.40
2023-03-03T19:29:58.340Z,27.63
2023-03-03T19:32:32.543Z,29.57
2023-03-03T19:35:10.062Z,28.63
2023-03-03T19:37:45.154Z,28.80
2023-03-03T19:40:18.184Z,28.03
2023-03-03T19:42:48.489Z,29.20
2023-03-03T19:45:23.748Z,30.67
2023-03-03T19:47:53.850Z,28.67
2023-03-03T19:50:31.096Z,27.83
2023-03-03T19:53:03.516Z,30.27
2023-03-03T19:55:36.419Z,28.37
2023-03-03T19:58:11.651Z,28.87
2023-03-03T20:00:42.794Z,28.80
2023-03-03T20:03:27.464Z,27.23
2023-03-03T20:05:59.349Z,29.27
2023-03-03T20:08:31.086Z,29.07
2023-03-03T20:11:02.397Z,29.00
2023-03-03T20:13:38.697Z,28.93
2023-03-03T20:16:14.892Z,31.70
2023-03-03T20:18:52.283Z,28.00
2023-03-03T20:21:30.097Z,30.00
2023-03-03T20:24:04.465Z,29.00
2023-03-03T20:26:35.636Z,30.97
2023-03-03T20:29:18.662Z,28.17
2023-03-03T20:31:50.448Z,28.40
2023-03-03T20:34:21.880Z,32.13
2023-03-03T20:36:57.628Z,31.30
2023-03-03T20:39:36.504Z,29.97
2023-03-03T20:42:08.952Z,31.93
2023-03-03T20:44:44.252Z,31.37
2023-03-03T20:47:15.297Z,32.83
2023-03-03T20:49:56.482Z,30.83
2023-03-03T20:52:32.209Z,30.77
2023-03-03T20:55:05.994Z,30.10
2023-03-03T20:57:38.622Z,33.13
2023-03-03T21:00:08.740Z,31.03
2023-03-03T21:02:39.586Z,30.13
2023-03-03T21:05:13.003Z,32.93
2023-03-03T21:07:51.807Z,33.50
2023-03-03T21:10:23.988Z,31.73
2023-03-03T21:12:53.094Z,31.10
2023-03-03T21:15:29.163Z,31.57
2023-03-03T21:17:58.156Z,32.33
2023-03-03T21:20:28.207Z,34.37
2023-03-03T21:22:58.147Z,36.10
2023-03-03T21:25:43.875Z,32.73
2023-03-03T21:28:16.368Z,28.60
2023-03-03T21:31:03.352Z,29.13
2023-03-03T21:33:41.574Z,29.17
2023-03-03T21:36:09.945Z,32.13
2023-03-03T21:38:40.424Z,34.90
2023-03-03T21:41:09.309Z,33.70
2023-03-03T21:43:37.933Z,34.33
2023-03-03T21:46:06.279Z,34.50
2023-03-03T21:48:34.475Z,33.50
2023-03-03T21:51:03.139Z,32.03
2023-03-03T21:53:31.289Z,30.33
2023-03-03T21:56:00.820Z,31.23
2023-03-03T21:58:29.103Z,32.93
2023-03-03T22:00:57.300Z,29.23
2023-03-03T22:03:26.854Z,28.27
2023-03-03T22:05:58.145Z,29.90
2023-03-03T22:08:27.922Z,30.33
2023-03-03T22:10:56.788Z,30.50
2023-03-03T22:13:27.443Z,27.77
2023-03-03T22:15:56.235Z,28.67
2023-03-03T22:18:24.386Z,27.23
2023-03-03T22:20:52.554Z,27.23
2023-03-03T22:23:20.779Z,27.33
2023-03-03T22:25:48.944Z,27.00
2023-03-03T22:28:17.122Z,26.33
2023-03-03T22:30:46.620Z,25.90
2023-03-03T22:33:14.892Z,25.67
2023-03-03T22:35:43.154Z,25.13
2023-03-03T22:38:11.406Z,24.67
2023-03-03T22:40:39.577Z,24.03
2023-03-03T22:43:07.843Z,23.40
2023-03-03T22:45:36.044Z,23.27
2023-03-03T22:48:05.664Z,24.87
2023-03-03T22:50:39.282Z,24.07
2023-03-03T22:53:07.483Z,22.53
2023-03-03T22:55:37.076Z,23.27
2023-03-03T22:58:06.568Z,24.17
2023-03-03T23:00:38.033Z,22.03
2023-03-03T23:03:07.695Z,20.27
2023-03-03T23:05:36.600Z,20.23
2023-03-03T23:08:05.295Z,21.63
2023-03-03T23:10:33.538Z,21.67
2023-03-03T23:13:01.720Z,19.73
2023-03-03T23:15:29.891Z,20.27
2023-03-03T23:17:58.037Z,19.47
2023-03-03T23:20:28.931Z,18.90
2023-03-03T23:22:57.112Z,20.20
2023-03-03T23:25:25.449Z,19.70
2023-03-03T23:27:55.019Z,18.30
2023-03-03T23:30:23.663Z,18.77
2023-03-03T23:32:52.122Z,18.40
2023-03-03T23:35:23.522Z,17.70
2023-03-03T23:37:53.054Z,18.67
2023-03-03T23:40:23.492Z,19.57
2023-03-03T23:42:51.694Z,18.67
2023-03-03T23:45:19.893Z,18.17
2023-03-03T23:47:48.059Z,19.37
2023-03-03T23:50:16.235Z,20.07
2023-03-03T23:52:44.430Z,19.87
2023-03-03T23:55:13.933Z,19.13
2023-03-03T23:57:42.151Z,19.30
